Time;durP1;ratioP1;P1;durP2;ratioP2;P2;SDS_P1;SDS_P2;PMS_P1;PMS_P2;Temp;Humidity;BMP_temperature;BMP_pressure;BME280_temperature;BME280_humidity;BME280_pressure;Samples;Min_cycle;Max_cycle;Signal;HPM_P1;HPM_P2
2021/10/29 00:01:05;;;;;;;13.90;6.55;;;;;;;;;;21072060;28;20502;-60
2021/10/29 00:11:08;;;;;;;15.35;6.25;;;;;;;;;;21089690;28;20044;-60
2021/10/29 00:21:09;;;;;;;13.02;7.55;;;;;;;;;;21090222;28;20488;-61
2021/10/29 00:31:11;;;;;;;19.65;8.00;;;;;;;;;;21088350;28;20123;-61
2021/10/29 00:41:13;;;;;;;15.27;8.25;;;;;;;;;;21087645;28;20040;-60
2021/10/29 00:51:17;;;;;;;15.57;7.88;;;;;;;;;;21087929;28;20105;-61
2021/10/29 01:01:20;;;;;;;17.13;8.55;;;;;;;;;;21085837;28;20496;-60
2021/10/29 01:11:22;;;;;;;17.35;9.35;;;;;;;;;;21084134;28;20067;-60
2021/10/29 01:21:27;;;;;;;15.52;9.68;;;;;;;;;;21083740;28;20044;-60
2021/10/29 01:31:30;;;;;;;18.23;9.85;;;;;;;;;;21083504;28;20051;-60
2021/10/29 01:41:33;;;;;;;17.00;8.93;;;;;;;;;;21081271;28;20473;-61
2021/10/29 01:51:38;;;;;;;13.93;9.02;;;;;;;;;;21080995;28;20094;-60
2021/10/29 02:01:44;;;;;;;16.33;8.77;;;;;;;;;;21080303;28;20080;-61
2021/10/29 02:12:01;;;;;;;13.65;8.93;;;;;;;;;;21079854;28;20408;-62
2021/10/29 02:22:15;;;;;;;23.57;9.20;;;;;;;;;;21079379;28;20055;-60
2021/10/29 02:32:24;;;;;;;16.25;9.60;;;;;;;;;;21078760;28;20051;-61
2021/10/29 02:42:34;;;;;;;20.98;9.70;;;;;;;;;;21077722;28;20052;-61
2021/10/29 02:52:47;;;;;;;13.75;9.63;;;;;;;;;;21077911;28;20048;-61
2021/10/29 03:02:53;;;;;;;17.40;11.02;;;;;;;;;;21094697;28;20052;-60
2021/10/29 03:13:16;;;;;;;18.85;10.63;;;;;;;;;;21079358;28;20082;-60
2021/10/29 03:23:39;;;;;;;16.13;9.60;;;;;;;;;;21094612;28;20135;-60
2021/10/29 03:33:58;;;;;;;19.65;10.35;;;;;;;;;;21093974;28;20059;-60
2021/10/29 03:54:34;;;;;;;21.38;10.68;;;;;;;;;;21092266;28;20060;-60
2021/10/29 04:04:35;;;;;;;17.15;9.82;;;;;;;;;;21090274;28;20560;-60
2021/10/29 04:14:46;;;;;;;15.38;9.23;;;;;;;;;;21089620;28;20051;-60
2021/10/29 04:24:59;;;;;;;21.20;10.57;;;;;;;;;;21088300;28;20044;-60
2021/10/29 04:35:06;;;;;;;15.57;7.85;;;;;;;;;;21087921;28;20048;-60
2021/10/29 04:45:15;;;;;;;13.73;8.32;;;;;;;;;;21087886;28;20079;-61
2021/10/29 04:55:22;;;;;;;16.50;8.32;;;;;;;;;;21112984;28;20058;-61
2021/10/29 05:05:26;;;;;;;16.93;8.30;;;;;;;;;;21086509;28;20101;-60
2021/10/29 05:15:29;;;;;;;17.17;8.90;;;;;;;;;;21083342;28;20245;-59
2021/10/29 05:25:32;;;;;;;32.00;13.55;;;;;;;;;;21083845;28;20040;-60
2021/10/29 05:35:34;;;;;;;16.73;8.85;;;;;;;;;;21083242;28;20499;-61
2021/10/29 05:45:35;;;;;;;15.60;6.18;;;;;;;;;;21081751;28;20044;-60
2021/10/29 05:55:37;;;;;;;10.80;5.82;;;;;;;;;;21080854;28;20084;-60
2021/10/29 06:05:40;;;;;;;8.70;5.40;;;;;;;;;;21080623;28;20056;-61
2021/10/29 06:15:44;;;;;;;10.70;5.13;;;;;;;;;;21081358;28;20043;-60
2021/10/29 06:25:47;;;;;;;13.60;6.17;;;;;;;;;;21079634;28;20054;-60
2021/10/29 06:35:50;;;;;;;18.13;7.07;;;;;;;;;;21078556;28;20044;-61
2021/10/29 07:48:07;;;;;;;12.55;5.78;;;;;;;;;;21089568;28;20052;-60
2021/10/29 07:58:09;;;;;;;12.75;6.53;;;;;;;;;;21090406;28;20054;-60
2021/10/29 08:08:11;;;;;;;8.88;5.45;;;;;;;;;;21090032;28;20083;-61
2021/10/29 08:18:16;;;;;;;13.32;6.25;;;;;;;;;;21089649;28;20052;-60
2021/10/29 08:28:21;;;;;;;12.95;5.72;;;;;;;;;;21088589;28;20484;-60
2021/10/29 08:38:24;;;;;;;8.10;4.35;;;;;;;;;;21087577;28;20052;-60
2021/10/29 08:48:26;;;;;;;17.17;7.15;;;;;;;;;;21085805;28;20056;-60
2021/10/29 08:58:30;;;;;;;11.50;4.90;;;;;;;;;;21084036;28;20044;-60
2021/10/29 09:39:43;;;;;;;5.78;3.80;;;;;;;;;;20824236;28;20517;-60
2021/10/29 10:00:05;;;;;;;9.93;5.55;;;;;;;;;;20873017;28;20139;-60
2021/10/29 10:10:09;;;;;;;9.27;5.60;;;;;;;;;;20969230;28;20130;-60
2021/10/29 10:20:13;;;;;;;10.63;5.68;;;;;;;;;;21074009;28;20066;-61
2021/10/29 10:30:38;;;;;;;13.50;6.57;;;;;;;;;;21078545;28;20153;-60
2021/10/29 10:41:02;;;;;;;14.75;8.85;;;;;;;;;;21078546;28;20101;-60
2021/10/29 10:51:36;;;;;;;18.33;10.93;;;;;;;;;;21078646;28;20492;-59
2021/10/29 11:02:07;;;;;;;13.07;7.07;;;;;;;;;;21076989;28;20071;-59
2021/10/29 11:12:07;;;;;;;8.68;4.80;;;;;;;;;;21076382;28;20105;-60
2021/10/29 11:22:09;;;;;;;7.88;4.35;;;;;;;;;;21091625;28;20130;-60
2021/10/29 11:32:12;;;;;;;6.05;4.18;;;;;;;;;;21093083;28;20474;-60
2021/10/29 11:42:17;;;;;;;11.38;5.20;;;;;;;;;;21091904;28;20131;-61
2021/10/29 11:52:21;;;;;;;6.97;4.50;;;;;;;;;;21090947;28;20143;-61
2021/10/29 12:12:46;;;;;;;18.02;6.93;;;;;;;;;;21090314;28;20143;-62
2021/10/29 12:22:54;;;;;;;11.60;6.70;;;;;;;;;;21092323;28;20051;-61
2021/10/29 12:54:06;;;;;;;10.63;7.97;;;;;;;;;;20828430;28;20532;-60
2021/10/29 13:04:12;;;;;;;16.73;9.15;;;;;;;;;;20826840;28;20140;-60
2021/10/29 13:14:23;;;;;;;10.10;6.82;;;;;;;;;;20826893;28;20068;-59
2021/10/29 14:36:09;;;;;;;13.90;8.52;;;;;;;;;;21078863;28;20048;-60
2021/10/29 15:14:41;;;;;;;12.27;9.32;;;;;;;;;;20836006;28;20566;-61
2021/10/29 15:48:23;;;;;;;23.10;13.43;;;;;;;;;;21091524;28;20010;-60
2021/10/29 16:17:03;;;;;;;13.05;9.75;;;;;;;;;;20748398;28;20085;-64
2021/10/29 16:19:30;;;;;;;15.07;9.98;;;;;;;;;;20748255;28;20534;-60
2021/10/29 16:29:32;;;;;;;14.02;10.45;;;;;;;;;;20747194;28;20461;-59
2021/10/29 16:39:34;;;;;;;13.13;9.25;;;;;;;;;;20849423;28;20044;-55
2021/10/29 16:49:36;;;;;;;9.57;7.25;;;;;;;;;;21068651;28;20453;-54
2021/10/29 16:59:38;;;;;;;10.85;8.98;;;;;;;;;;21085093;28;20500;-60
2021/10/29 17:09:40;;;;;;;12.15;10.68;;;;;;;;;;21066240;28;20082;-57
2021/10/29 17:19:42;;;;;;;10.98;8.57;;;;;;;;;;21082686;28;20503;-57
2021/10/29 17:29:44;;;;;;;11.88;10.68;;;;;;;;;;21083186;28;20058;-56
2021/10/29 17:39:46;;;;;;;16.23;12.25;;;;;;;;;;21082772;28;20051;-65
2021/10/29 17:49:48;;;;;;;13.57;9.18;;;;;;;;;;21082950;28;20182;-56
2021/10/29 17:59:52;;;;;;;9.40;6.95;;;;;;;;;;21091714;28;20496;-61
2021/10/29 18:09:54;;;;;;;17.55;12.85;;;;;;;;;;21063376;28;20056;-60
2021/10/29 18:19:56;;;;;;;14.63;12.18;;;;;;;;;;21077221;28;20048;-57
2021/10/29 18:29:58;;;;;;;14.15;10.45;;;;;;;;;;21077579;28;20086;-55
2021/10/29 18:40:00;;;;;;;14.68;11.40;;;;;;;;;;21076998;28;20078;-60
2021/10/29 18:50:02;;;;;;;14.35;11.15;;;;;;;;;;21075293;28;20048;-57
2021/10/29 19:00:04;;;;;;;12.80;10.82;;;;;;;;;;21075679;28;20520;-58
2021/10/29 19:10:06;;;;;;;15.60;13.30;;;;;;;;;;21079586;28;20051;-66
2021/10/29 19:20:08;;;;;;;13.80;10.82;;;;;;;;;;21097405;28;20055;-65
2021/10/29 19:30:12;;;;;;;21.55;19.40;;;;;;;;;;21075978;28;20181;-64
2021/10/29 19:40:22;;;;;;;20.27;18.17;;;;;;;;;;21084145;28;20052;-66
2021/10/29 19:50:25;;;;;;;17.85;13.70;;;;;;;;;;21090784;28;20062;-66
2021/10/29 20:00:29;;;;;;;16.13;12.13;;;;;;;;;;21092283;28;20048;-66
2021/10/29 20:10:33;;;;;;;12.20;10.90;;;;;;;;;;21072171;28;20051;-67
2021/10/29 20:20:39;;;;;;;11.23;9.80;;;;;;;;;;21088138;28;20100;-65
2021/10/29 20:30:41;;;;;;;10.10;6.60;;;;;;;;;;21088555;28;20062;-66
2021/10/29 20:40:43;;;;;;;12.60;6.55;;;;;;;;;;21088742;28;20048;-67
2021/10/29 20:50:45;;;;;;;7.10;4.90;;;;;;;;;;21087150;28;20480;-67
2021/10/29 21:00:47;;;;;;;7.13;4.78;;;;;;;;;;21086166;28;20082;-67
2021/10/29 21:10:53;;;;;;;10.00;6.60;;;;;;;;;;21085030;28;20552;-67
2021/10/29 21:20:55;;;;;;;11.13;7.72;;;;;;;;;;21084376;28;20079;-67
2021/10/29 21:30:57;;;;;;;13.85;10.13;;;;;;;;;;21083796;28;20139;-68
2021/10/29 21:41:00;;;;;;;13.18;10.40;;;;;;;;;;21065007;28;20044;-69
2021/10/29 21:51:02;;;;;;;9.48;6.85;;;;;;;;;;21082987;28;20599;-69
2021/10/29 22:01:04;;;;;;;10.75;6.78;;;;;;;;;;21083924;28;20052;-68
2021/10/29 22:11:07;;;;;;;10.90;7.57;;;;;;;;;;21083751;28;20054;-67
2021/10/29 22:21:11;;;;;;;10.52;7.80;;;;;;;;;;21083095;28;20127;-68
2021/10/29 22:31:15;;;;;;;10.57;7.63;;;;;;;;;;21082333;28;20044;-67
2021/10/29 22:41:17;;;;;;;7.40;5.00;;;;;;;;;;21080466;28;20040;-67
2021/10/29 22:51:19;;;;;;;7.30;4.80;;;;;;;;;;21078375;28;20052;-68
2021/10/29 23:01:21;;;;;;;6.28;4.45;;;;;;;;;;21077648;28;20063;-67
2021/10/29 23:11:23;;;;;;;6.88;4.72;;;;;;;;;;21081123;28;20070;-67
2021/10/29 23:21:25;;;;;;;5.65;4.57;;;;;;;;;;21094191;28;20520;-68
2021/10/29 23:31:27;;;;;;;6.82;4.50;;;;;;;;;;21092865;28;20416;-67
2021/10/29 23:41:29;;;;;;;8.50;5.18;;;;;;;;;;21075234;28;20054;-67
2021/10/29 23:51:31;;;;;;;7.78;5.60;;;;;;;;;;21091368;28;20087;-67
